Time;durP1;ratioP1;P1;durP2;ratioP2;P2;SDS_P1;SDS_P2;PMS_P1;PMS_P2;Temp;Humidity;BMP_temperature;BMP_pressure;BME280_temperature;BME280_humidity;BME280_pressure;Samples;Min_cycle;Max_cycle;Signal;HPM_P1;HPM_P2
2021/01/02 00:02:42;;;;;;;111.75;40.97;;;;;;;-0.19;72.79;97262.66;10167579;29;20569;-76
2021/01/02 00:08:18;;;;;;;104.10;42.17;;;;;;;-0.20;72.24;97268.66;10181611;29;20071;-76
2021/01/02 00:14:20;;;;;;;75.30;40.03;;;;;;;-0.26;72.77;97268.81;10181565;29;20060;-76
2021/01/02 00:20:32;;;;;;;73.47;37.35;;;;;;;-0.23;72.93;97264.25;10180120;29;20090;-76
2021/01/02 00:25:59;;;;;;;77.55;38.53;;;;;;;-0.26;72.48;97262.59;10181548;29;20060;-76
2021/01/02 00:31:34;;;;;;;75.68;38.78;;;;;;;-0.23;72.84;97259.50;10167028;29;20063;-75
2021/01/02 00:37:04;;;;;;;72.13;38.53;;;;;;;-0.19;72.57;97253.69;10180536;29;20059;-75
2021/01/02 00:42:24;;;;;;;81.32;39.55;;;;;;;-0.16;72.92;97269.09;10180450;29;20091;-76
2021/01/02 00:47:44;;;;;;;68.00;36.28;;;;;;;-0.18;73.09;97261.41;10179266;29;20135;-75
2021/01/02 00:53:16;;;;;;;62.08;33.85;;;;;;;-0.19;73.21;97261.91;10166379;29;20056;-76
2021/01/02 00:59:31;;;;;;;65.18;33.45;;;;;;;-0.23;72.83;97269.75;10179658;29;20147;-76
2021/01/02 01:04:52;;;;;;;66.25;34.75;;;;;;;-0.23;73.07;97272.47;10165725;29;20052;-76
2021/01/02 01:10:13;;;;;;;66.30;34.58;;;;;;;-0.28;73.11;97273.38;10179786;29;20056;-75
2021/01/02 01:15:33;;;;;;;67.47;33.28;;;;;;;-0.28;72.91;97292.56;10164906;29;20067;-76
2021/01/02 01:20:58;;;;;;;67.20;34.58;;;;;;;-0.33;73.11;97294.88;10178598;29;20119;-76
2021/01/02 01:26:48;;;;;;;65.80;35.63;;;;;;;-0.28;73.11;97300.78;10177966;29;20072;-76
2021/01/02 01:32:08;;;;;;;80.28;36.85;;;;;;;-0.33;72.99;97308.59;10189929;29;20071;-76
2021/01/02 01:37:30;;;;;;;66.85;33.85;;;;;;;-0.35;73.39;97304.91;10165123;29;20067;-76
2021/01/02 01:43:06;;;;;;;75.20;36.80;;;;;;;-0.24;73.59;97306.69;10178257;29;20090;-76
2021/01/02 01:48:26;;;;;;;77.50;37.67;;;;;;;-0.24;73.56;97312.16;10164614;29;20067;-76
2021/01/02 01:53:55;;;;;;;80.35;40.22;;;;;;;-0.32;73.81;97307.31;10176827;29;20068;-75
2021/01/02 01:59:17;;;;;;;83.15;39.03;;;;;;;-0.39;73.77;97302.47;10178273;29;20064;-76
2021/01/02 02:05:08;;;;;;;77.75;38.88;;;;;;;-0.52;74.32;97305.25;10176009;29;20110;-76
2021/01/02 02:10:36;;;;;;;64.70;34.30;;;;;;;-0.52;73.51;97304.53;10176417;29;20115;-76
2021/01/02 02:15:57;;;;;;;67.53;36.97;;;;;;;-0.55;74.00;97309.06;10177380;29;20201;-76
2021/01/02 02:21:16;;;;;;;65.85;34.22;;;;;;;-0.63;74.33;97308.25;10175976;29;20156;-76
2021/01/02 02:26:37;;;;;;;62.33;33.70;;;;;;;-0.73;74.30;97302.44;10162956;29;20067;-76
2021/01/02 02:31:57;;;;;;;61.45;32.45;;;;;;;-0.71;74.00;97301.91;10189268;29;20451;-75
2021/01/02 02:37:16;;;;;;;67.50;31.67;;;;;;;-0.62;73.97;97302.22;10149622;29;20095;-76
2021/01/02 02:42:42;;;;;;;58.10;30.42;;;;;;;-0.60;73.71;97307.16;10177555;29;20068;-76
2021/01/02 02:48:10;;;;;;;72.85;31.48;;;;;;;-0.56;73.73;97304.88;10183784;29;20068;-76
2021/01/02 02:53:30;;;;;;;63.97;31.38;;;;;;;-0.42;73.66;97308.31;10171523;29;20068;-76
2021/01/02 02:58:52;;;;;;;59.28;30.58;;;;;;;-0.38;74.01;97309.47;10182929;29;20072;-76
2021/01/02 03:04:12;;;;;;;64.53;32.47;;;;;;;-0.35;73.53;97308.41;10158077;29;20089;-76
2021/01/02 03:09:32;;;;;;;58.63;30.55;;;;;;;-0.35;73.61;97318.63;10182724;29;20123;-75
2021/01/02 03:14:58;;;;;;;62.58;31.60;;;;;;;-0.42;74.13;97317.25;10170436;29;20060;-76
2021/01/02 03:20:18;;;;;;;56.40;29.65;;;;;;;-0.43;74.24;97317.81;10183658;29;20060;-75
2021/01/02 03:25:37;;;;;;;65.07;31.65;;;;;;;-0.49;74.26;97315.16;10169533;29;20138;-76
2021/01/02 03:30:57;;;;;;;74.18;32.70;;;;;;;-0.47;74.73;97325.63;10181957;29;20071;-76
2021/01/02 03:36:17;;;;;;;60.35;31.65;;;;;;;-0.41;74.88;97320.75;10182898;29;20067;-76
2021/01/02 03:41:37;;;;;;;79.03;32.50;;;;;;;-0.46;74.78;97327.81;10194882;29;20587;-76
2021/01/02 03:46:57;;;;;;;64.65;32.08;;;;;;;-0.41;74.55;97313.25;10168507;29;20060;-75
2021/01/02 03:52:17;;;;;;;69.03;31.73;;;;;;;-0.35;74.84;97318.63;10181805;29;20060;-76
2021/01/02 03:57:37;;;;;;;59.72;30.67;;;;;;;-0.33;74.75;97330.53;10180870;29;20068;-76
2021/01/02 04:02:57;;;;;;;66.22;32.03;;;;;;;-0.25;74.24;97329.88;10168727;29;20521;-75
2021/01/02 04:08:17;;;;;;;61.70;31.17;;;;;;;-0.26;74.78;97328.41;10181605;29;20067;-76
2021/01/02 04:13:37;;;;;;;50.25;28.58;;;;;;;-0.35;74.39;97329.59;10168451;29;20067;-76
2021/01/02 04:18:57;;;;;;;64.03;29.83;;;;;;;-0.34;75.16;97331.06;10181243;29;20068;-76
2021/01/02 04:24:17;;;;;;;54.95;27.52;;;;;;;-0.38;75.19;97328.66;10180189;29;20087;-76
2021/01/02 04:29:37;;;;;;;55.45;28.15;;;;;;;-0.38;75.15;97328.66;10181071;29;20064;-75
2021/01/02 04:34:56;;;;;;;53.33;27.30;;;;;;;-0.26;74.76;97320.19;10193483;29;20074;-76
2021/01/02 04:40:17;;;;;;;42.33;22.90;;;;;;;-0.26;74.43;97323.66;10179362;29;20071;-76
2021/01/02 04:45:36;;;;;;;44.25;25.40;;;;;;;-0.24;74.47;97328.63;10181060;29;20071;-76
2021/01/02 04:50:56;;;;;;;45.97;25.80;;;;;;;-0.21;74.81;97333.03;10166307;29;20080;-75
2021/01/02 04:56:16;;;;;;;50.50;25.88;;;;;;;-0.13;74.71;97329.09;10166534;29;20146;-76
2021/01/02 05:01:40;;;;;;;48.20;26.77;;;;;;;-0.09;74.80;97331.53;10178502;29;20071;-76
2021/01/02 05:07:00;;;;;;;57.03;28.70;;;;;;;-0.11;74.62;97329.31;10192409;29;20143;-76
2021/01/02 05:12:28;;;;;;;59.58;28.80;;;;;;;-0.11;74.83;97343.03;10179276;29;20060;-76
2021/01/02 05:17:48;;;;;;;55.65;28.25;;;;;;;-0.10;74.82;97333.53;10164505;29;20064;-76
2021/01/02 05:23:08;;;;;;;56.75;28.52;;;;;;;-0.12;74.85;97347.03;10165127;29;20083;-76
2021/01/02 05:28:28;;;;;;;51.10;28.10;;;;;;;-0.10;74.63;97354.72;10151459;29;20067;-76
2021/01/02 05:33:53;;;;;;;59.85;28.98;;;;;;;-0.10;75.00;97354.72;10140058;29;20052;-76
2021/01/02 05:39:17;;;;;;;63.40;30.00;;;;;;;-0.12;75.29;97343.56;10150198;29;20061;-76
2021/01/02 05:44:39;;;;;;;60.90;28.73;;;;;;;-0.11;75.24;97345.03;10150881;29;20196;-76
2021/01/02 05:49:59;;;;;;;58.63;28.52;;;;;;;-0.15;74.94;97361.81;10139308;29;20487;-75
2021/01/02 05:55:30;;;;;;;64.43;30.88;;;;;;;-0.22;75.11;97356.25;10163717;29;20068;-76
2021/01/02 06:00:49;;;;;;;63.28;29.05;;;;;;;-0.24;74.85;97351.28;10137816;29;20064;-76
2021/01/02 06:06:11;;;;;;;56.75;29.75;;;;;;;-0.13;75.22;97350.31;10138219;29;20056;-76
2021/01/02 06:11:34;;;;;;;;;;;;;;;-0.08;75.41;97352.22;10150425;29;20139;-78
2021/01/02 06:16:54;;;;;;;59.95;29.55;;;;;;;-0.02;74.61;97369.28;10150523;29;20018;-78
2021/01/02 06:22:13;;;;;;;62.97;30.50;;;;;;;0.04;74.82;97358.94;10137016;29;20411;-76
2021/01/02 06:27:37;;;;;;;60.13;28.60;;;;;;;0.06;74.89;97361.88;10137342;29;20068;-79
2021/01/02 06:32:56;;;;;;;62.28;29.85;;;;;;;0.12;75.09;97359.75;10150021;29;20064;-79
2021/01/02 06:38:16;;;;;;;56.95;28.48;;;;;;;0.13;74.95;97369.44;10151025;29;20427;-78
2021/01/02 06:43:39;;;;;;;58.50;29.42;;;;;;;0.16;74.48;97370.38;10151255;29;20120;-78
2021/01/02 06:48:59;;;;;;;59.00;29.35;;;;;;;0.18;74.90;97371.31;10163299;29;20061;-78
2021/01/02 06:54:22;;;;;;;58.17;28.20;;;;;;;0.22;75.01;97365.50;10197994;29;20479;-78
2021/01/02 06:59:41;;;;;;;58.38;29.27;;;;;;;0.23;74.82;97359.47;10178334;29;20091;-76
2021/01/02 07:05:02;;;;;;;60.55;30.02;;;;;;;0.22;74.28;97349.03;10166727;29;20511;-76
2021/01/02 07:10:22;;;;;;;65.80;28.98;;;;;;;0.16;74.95;97349.16;10176500;29;20064;-74
2021/01/02 07:15:45;;;;;;;57.50;29.77;;;;;;;0.17;75.05;97361.63;10209764;29;20103;-76
2021/01/02 07:21:36;;;;;;;69.05;31.38;;;;;;;0.16;74.76;97365.63;10201589;29;20071;-76
2021/01/02 07:27:03;;;;;;;62.57;30.90;;;;;;;0.19;74.68;97364.59;10202285;29;20143;-76
2021/01/02 07:32:30;;;;;;;58.85;28.27;;;;;;;0.20;75.12;97376.28;10206928;29;20121;-75
2021/01/02 07:37:54;;;;;;;59.47;30.02;;;;;;;0.15;74.78;97377.16;10197003;29;20150;-75
2021/01/02 07:43:14;;;;;;;63.72;29.50;;;;;;;0.11;75.00;97393.22;10207959;29;20106;-74
2021/01/02 07:48:33;;;;;;;78.55;35.47;;;;;;;0.04;75.17;97402.84;10182199;29;20059;-75
2021/01/02 07:53:53;;;;;;;68.82;31.20;;;;;;;0.00;75.48;97413.41;10208529;29;20397;-75
2021/01/02 07:59:24;;;;;;;65.60;32.13;;;;;;;0.01;75.58;97414.88;10207078;29;20139;-75
2021/01/02 08:04:44;;;;;;;58.33;29.77;;;;;;;-0.01;75.45;97404.41;10207429;29;20135;-77
2021/01/02 08:10:09;;;;;;;62.67;31.23;;;;;;;0.02;75.63;97410.88;10196965;29;20425;-75
2021/01/02 08:15:36;;;;;;;61.65;30.67;;;;;;;0.10;75.40;97422.69;10208901;29;20417;-75
2021/01/02 08:21:00;;;;;;;59.97;30.48;;;;;;;0.19;75.50;97429.69;10222495;29;20221;-75
2021/01/02 08:26:21;;;;;;;65.30;30.90;;;;;;;0.25;75.01;97438.56;10220255;29;20059;-77
2021/01/02 08:31:51;;;;;;;58.58;30.85;;;;;;;0.34;75.34;97442.88;10193959;29;20073;-73
2021/01/02 08:37:14;;;;;;;61.53;30.50;;;;;;;0.38;75.25;97440.53;10205621;29;20126;-73
2021/01/02 08:42:46;;;;;;;61.13;30.80;;;;;;;0.44;75.24;97452.88;10193501;29;20090;-76
2021/01/02 08:48:07;;;;;;;59.08;30.13;;;;;;;0.52;75.06;97433.72;10192980;29;20115;-76
2021/01/02 08:53:28;;;;;;;60.50;30.25;;;;;;;0.76;74.93;97432.66;10205113;29;20437;-75
2021/01/02 08:58:47;;;;;;;61.70;30.55;;;;;;;0.86;74.70;97431.66;10218819;29;20067;-75
2021/01/02 09:04:13;;;;;;;60.13;30.50;;;;;;;1.09;74.50;97429.09;10192556;29;20067;-75
2021/01/02 09:09:33;;;;;;;62.15;30.45;;;;;;;1.11;74.67;97447.81;10218640;29;20064;-75
2021/01/02 09:14:53;;;;;;;61.25;30.42;;;;;;;1.04;74.54;97448.47;10218389;29;20063;-75
2021/01/02 09:20:19;;;;;;;54.25;28.27;;;;;;;1.07;74.41;97459.16;10204220;29;20060;-75
2021/01/02 09:25:40;;;;;;;62.47;31.70;;;;;;;1.06;74.20;97454.16;10204949;29;20131;-76
2021/01/02 09:31:00;;;;;;;62.40;31.90;;;;;;;1.07;74.70;97452.91;10203721;29;20071;-75
2021/01/02 09:36:21;;;;;;;66.70;31.45;;;;;;;1.01;74.68;97452.31;10217995;29;20086;-76
2021/01/02 09:41:40;;;;;;;59.53;32.78;;;;;;;0.95;74.71;97448.94;10203599;29;20071;-75
2021/01/02 09:47:00;;;;;;;61.80;31.13;;;;;;;0.97;74.04;97451.91;10204926;29;20213;-75
2021/01/02 09:52:20;;;;;;;63.75;30.30;;;;;;;0.91;74.44;97445.81;10202495;29;20083;-72
2021/01/02 09:57:40;;;;;;;51.00;28.67;;;;;;;0.95;74.81;97435.94;10189775;29;20122;-75
2021/01/02 10:03:00;;;;;;;56.95;30.08;;;;;;;1.00;74.25;97434.34;10202665;29;20189;-75
2021/01/02 10:08:20;;;;;;;57.50;29.58;;;;;;;1.05;74.57;97439.69;10202157;29;20060;-76
2021/01/02 10:13:40;;;;;;;59.55;29.33;;;;;;;1.09;74.43;97431.84;10220271;29;20070;-75
2021/01/02 10:19:00;;;;;;;56.00;28.98;;;;;;;1.12;74.12;97425.25;10216446;29;20073;-78
2021/01/02 10:24:26;;;;;;;48.72;26.75;;;;;;;1.24;74.09;97424.97;10206530;29;20059;-78
2021/01/02 10:29:48;;;;;;;49.10;26.67;;;;;;;1.27;74.19;97424.66;10200961;29;20062;-77
2021/01/02 10:35:10;;;;;;;45.08;25.63;;;;;;;1.38;73.59;97421.59;10200984;29;20498;-78
2021/01/02 10:40:30;;;;;;;42.45;24.33;;;;;;;1.28;73.59;97412.38;10187414;29;20059;-77
2021/01/02 10:45:50;;;;;;;43.92;24.88;;;;;;;1.34;73.63;97421.19;10208711;29;20070;-77
2021/01/02 10:51:20;;;;;;;42.33;24.45;;;;;;;1.36;73.68;97426.19;10235015;29;20064;-77
2021/01/02 10:56:47;;;;;;;44.00;24.70;;;;;;;1.42;73.68;97419.22;10216621;29;20585;-75
2021/01/02 11:02:07;;;;;;;42.58;24.45;;;;;;;1.41;73.34;97415.00;10200600;29;20067;-72
2021/01/02 11:07:27;;;;;;;40.65;23.65;;;;;;;1.53;73.51;97387.19;10211313;29;20115;-75
2021/01/02 11:12:47;;;;;;;41.35;24.02;;;;;;;1.65;73.57;97388.38;10208050;29;20146;-74
2021/01/02 11:18:07;;;;;;;37.80;23.65;;;;;;;1.60;72.37;97394.75;10221728;29;20422;-76
2021/01/02 11:23:27;;;;;;;41.90;24.45;;;;;;;1.56;73.04;97395.13;10194962;29;20063;-76
2021/01/02 11:28:46;;;;;;;40.95;24.08;;;;;;;1.56;72.70;97388.88;10221746;29;20139;-74
2021/01/02 11:34:06;;;;;;;42.35;23.40;;;;;;;1.63;72.47;97396.41;10222985;29;20091;-74
2021/01/02 11:39:26;;;;;;;43.75;24.85;;;;;;;1.80;72.81;97388.44;10208276;29;20402;-74
2021/01/02 11:44:46;;;;;;;39.80;23.35;;;;;;;1.88;72.91;97377.47;10221568;29;20066;-75
2021/01/02 11:50:06;;;;;;;39.58;23.48;;;;;;;2.01;72.60;97375.28;10194331;29;20414;-75
2021/01/02 11:55:29;;;;;;;39.17;23.35;;;;;;;2.13;72.40;97367.44;10220891;29;20094;-74
2021/01/02 12:00:49;;;;;;;41.15;23.13;;;;;;;2.20;72.42;97357.72;10221354;29;20087;-75
2021/01/02 12:06:09;;;;;;;42.33;24.50;;;;;;;2.14;72.62;97371.69;10193725;29;20087;-74
2021/01/02 12:11:36;;;;;;;40.42;23.23;;;;;;;2.05;71.99;97374.22;10220885;29;20064;-74
2021/01/02 12:16:58;;;;;;;41.70;23.45;;;;;;;2.00;72.63;97373.81;10192505;29;20478;-75
2021/01/02 12:22:17;;;;;;;37.78;22.38;;;;;;;2.06;72.14;97364.69;10194270;29;20064;-74
2021/01/02 12:27:37;;;;;;;37.70;23.00;;;;;;;2.07;72.14;97366.13;10222534;29;20063;-74
2021/01/02 12:32:57;;;;;;;42.78;24.08;;;;;;;2.09;72.36;97371.84;10220169;29;20063;-75
2021/01/02 12:38:17;;;;;;;41.28;21.15;;;;;;;2.11;71.88;97372.00;10206158;29;20067;-75
2021/01/02 12:43:40;;;;;;;35.85;21.70;;;;;;;2.06;71.83;97372.94;10414875;23;20060;-76
2021/01/02 12:49:03;;;;;;;38.80;21.92;;;;;;;2.04;72.30;97367.25;10169422;29;20119;-76
2021/01/02 12:54:25;;;;;;;34.72;20.77;;;;;;;1.97;71.99;97368.69;10199528;29;20072;-80
2021/01/02 12:59:55;;;;;;;35.97;23.50;;;;;;;1.91;71.69;97366.09;10164647;29;20064;-76
2021/01/02 13:05:15;;;;;;;38.58;22.45;;;;;;;1.91;72.23;97377.09;10184502;29;20115;-76
2021/01/02 13:10:34;;;;;;;39.03;23.33;;;;;;;1.90;71.58;97370.13;10194618;29;20120;-76
2021/01/02 13:16:09;;;;;;;37.10;23.42;;;;;;;1.92;72.13;97377.81;11797703;23;20052;-82
2021/01/02 13:22:06;;;;;;;39.50;22.52;;;;;;;1.84;71.24;97386.06;10508698;23;20056;-77
2021/01/02 13:40:19;;;;;;;44.08;26.95;;;;;;;1.55;71.71;97370.91;10513268;23;20059;-78
2021/01/02 13:51:58;;;;;;;44.20;27.00;;;;;;;1.38;71.78;97357.59;10487568;23;20079;-77
2021/01/02 13:57:24;;;;;;;45.83;27.27;;;;;;;1.34;72.10;97368.19;10345719;23;20059;-78
2021/01/02 14:02:59;;;;;;;41.95;24.80;;;;;;;1.32;71.77;97349.50;10153818;29;20059;-78
2021/01/02 14:08:56;;;;;;;38.75;23.45;;;;;;;1.33;71.84;97355.72;10205646;29;20055;-83
2021/01/02 14:14:26;;;;;;;36.35;23.55;;;;;;;1.37;72.13;97356.13;10214762;28;20064;-81
2021/01/02 14:20:13;;;;;;;39.28;23.98;;;;;;;1.26;71.80;97365.44;11508273;23;20052;-80
2021/01/02 14:25:51;;;;;;;36.83;24.00;;;;;;;1.23;72.01;97374.00;11678050;23;20428;-77
2021/01/02 14:31:36;;;;;;;33.30;22.10;;;;;;;1.22;71.78;97376.03;10741344;23;20048;31
2021/01/02 14:49:38;;;;;;;30.08;19.75;;;;;;;1.22;71.79;97376.03;10400552;23;20061;-78
2021/01/02 14:55:12;;;;;;;28.77;17.75;;;;;;;1.22;71.73;97353.28;10315991;23;20115;-79
2021/01/02 15:14:19;;;;;;;30.75;18.67;;;;;;;1.14;71.43;97358.75;10225761;23;20059;-82
2021/01/02 15:25:52;;;;;;;31.60;19.02;;;;;;;1.17;72.04;97378.94;9761906;27;20052;-78
2021/01/02 15:31:12;;;;;;;28.65;18.00;;;;;;;1.13;72.13;97363.50;10068507;29;20057;-77
2021/01/02 15:36:57;;;;;;;27.42;17.52;;;;;;;1.15;71.91;97357.47;10113905;29;20068;-81
2021/01/02 15:42:19;;;;;;;28.98;18.38;;;;;;;1.11;71.77;97365.31;10106883;29;20068;-79
2021/01/02 15:47:44;;;;;;;28.38;18.20;;;;;;;1.06;71.33;97368.94;10119726;29;20061;-79
2021/01/02 15:53:12;;;;;;;;;;;;;;;1.08;71.67;97353.41;10264105;23;20550;-80
2021/01/02 15:58:35;;;;;;;32.00;18.90;;;;;;;1.06;71.58;97355.19;10576397;23;20354;-77
2021/01/02 16:03:55;;;;;;;29.13;18.85;;;;;;;1.08;72.17;97353.41;10125756;29;20064;-79
2021/01/02 16:09:17;;;;;;;28.75;18.80;;;;;;;1.08;72.21;97358.16;10125368;29;20064;-77
2021/01/02 16:14:41;;;;;;;28.50;17.95;;;;;;;1.04;72.45;97355.75;10116852;29;20067;-74
2021/01/02 16:20:01;;;;;;;30.42;18.27;;;;;;;1.08;72.01;97355.41;10132621;29;20060;-79
2021/01/02 16:25:23;;;;;;;29.58;18.83;;;;;;;1.12;71.90;97342.78;10648658;23;20052;-78
2021/01/02 16:30:56;;;;;;;30.70;20.05;;;;;;;1.12;71.43;97364.78;10137788;29;20070;-75
2021/01/02 16:36:26;;;;;;;29.27;18.70;;;;;;;1.14;72.10;97362.22;10178267;29;20064;-78
2021/01/02 16:41:47;;;;;;;31.85;19.10;;;;;;;1.27;71.83;97350.41;10205968;29;20111;-75
2021/01/02 16:47:13;;;;;;;27.75;18.85;;;;;;;1.29;72.28;97347.84;10220908;29;20063;-74
2021/01/02 16:52:33;;;;;;;32.53;20.17;;;;;;;1.29;71.99;97341.59;10169857;29;20067;-74
2021/01/02 16:57:53;;;;;;;30.45;18.67;;;;;;;1.30;72.46;97335.56;10178946;29;20406;-74
2021/01/02 17:03:13;;;;;;;28.30;19.13;;;;;;;1.36;71.60;97333.41;10191148;29;20064;-73
2021/01/02 17:08:33;;;;;;;26.90;18.38;;;;;;;1.36;71.90;97333.41;10191391;29;20063;-74
2021/01/02 17:13:53;;;;;;;29.73;19.20;;;;;;;1.41;71.50;97332.50;10178146;29;20573;-75
2021/01/02 17:19:13;;;;;;;29.25;18.60;;;;;;;1.38;71.91;97352.84;10191940;29;20067;-74
2021/01/02 17:24:33;;;;;;;27.58;17.92;;;;;;;1.40;71.65;97347.53;10218435;29;20457;-74
2021/01/02 17:29:53;;;;;;;29.75;18.48;;;;;;;1.41;71.75;97335.25;10203635;29;20068;-77
2021/01/02 17:35:13;;;;;;;29.30;18.80;;;;;;;1.41;72.04;97332.50;10202309;29;20139;-76
2021/01/02 17:40:33;;;;;;;28.25;18.25;;;;;;;1.40;72.10;97319.28;10202171;29;20502;-77
2021/01/02 17:45:53;;;;;;;29.05;18.67;;;;;;;1.38;71.71;97317.09;10216475;29;20070;-78
2021/01/02 17:51:15;;;;;;;29.55;19.50;;;;;;;1.36;71.85;97316.91;10189123;29;20055;-76
2021/01/02 17:56:34;;;;;;;30.98;20.85;;;;;;;1.38;72.15;97322.59;10189297;29;20109;-79
2021/01/02 18:01:59;;;;;;;29.05;19.65;;;;;;;1.38;71.77;97319.84;10183529;23;20056;-77
2021/01/02 18:07:18;;;;;;;32.40;20.90;;;;;;;1.37;72.20;97323.88;10163908;29;20194;-76
2021/01/02 18:12:38;;;;;;;32.83;21.17;;;;;;;1.37;72.02;97321.13;10162014;29;20123;-74
2021/01/02 18:18:04;;;;;;;32.85;21.38;;;;;;;1.39;71.92;97318.56;10161664;29;20068;-78
2021/01/02 18:23:30;;;;;;;33.85;22.15;;;;;;;1.42;71.79;97311.97;10163098;29;20060;-79
2021/01/02 18:28:50;;;;;;;33.95;21.90;;;;;;;1.40;71.72;97305.53;10161781;29;20060;-76
2021/01/02 18:34:10;;;;;;;32.05;21.10;;;;;;;1.39;71.97;97295.81;10165316;29;20071;-78
2021/01/02 18:39:31;;;;;;;35.85;22.67;;;;;;;1.43;72.02;97301.69;10175935;29;20091;-78
2021/01/02 18:44:51;;;;;;;36.35;22.73;;;;;;;1.46;72.43;97297.13;10176200;29;20068;-79
2021/01/02 18:50:38;;;;;;;36.45;22.30;;;;;;;1.43;72.45;97299.69;10187356;29;20052;-82
2021/01/02 18:56:14;;;;;;;36.65;23.08;;;;;;;1.38;72.32;97322.59;10157174;29;20099;-82
2021/01/02 19:01:53;;;;;;;36.47;22.17;;;;;;;1.34;71.92;97319.44;10183982;29;20099;-79
2021/01/02 19:07:13;;;;;;;35.83;23.50;;;;;;;1.37;72.30;97320.38;10178203;29;20097;-77
2021/01/02 19:12:33;;;;;;;34.65;22.45;;;;;;;1.39;72.17;97307.56;10163764;29;20063;-76
2021/01/02 19:17:53;;;;;;;33.78;22.42;;;;;;;1.48;71.99;97289.81;10161352;29;20080;-76
2021/01/02 19:23:13;;;;;;;34.58;22.83;;;;;;;1.47;72.47;97284.84;10175108;29;20060;-77
2021/01/02 19:28:35;;;;;;;40.03;24.77;;;;;;;1.44;72.42;97281.91;10496934;23;20083;-82
2021/01/02 19:34:04;;;;;;;38.80;25.05;;;;;;;1.38;72.28;97278.59;10257512;23;20397;-78
2021/01/02 19:39:29;;;;;;;38.42;24.55;;;;;;;1.34;72.72;97296.69;10213576;29;20056;-77
2021/01/02 19:44:49;;;;;;;36.80;24.77;;;;;;;1.38;72.88;97294.34;10208702;29;20068;-76
2021/01/02 19:50:10;;;;;;;37.95;23.05;;;;;;;1.36;72.27;97288.66;10206385;29;20131;-75
2021/01/02 19:55:30;;;;;;;38.65;24.77;;;;;;;1.36;72.78;97289.41;10236284;29;20216;-79
2021/01/02 20:00:50;;;;;;;40.50;24.35;;;;;;;1.34;73.24;97278.19;10209048;29;20204;-77
2021/01/02 20:06:11;;;;;;;39.45;25.58;;;;;;;1.35;72.82;97270.66;10205882;29;20071;-77
2021/01/02 20:11:30;;;;;;;40.53;25.85;;;;;;;1.30;72.78;97266.81;10224985;29;20070;-77
2021/01/02 20:16:50;;;;;;;41.92;25.58;;;;;;;1.29;74.06;97281.09;10205365;29;20231;-76
2021/01/02 20:22:11;;;;;;;41.25;25.02;;;;;;;1.27;73.51;97278.91;10219769;29;20146;-79
2021/01/02 20:27:30;;;;;;;45.83;27.60;;;;;;;1.30;73.45;97266.09;10208725;29;20540;-77
2021/01/02 20:32:50;;;;;;;43.95;27.02;;;;;;;1.28;73.35;97258.38;10219219;29;20070;-77
2021/01/02 20:38:10;;;;;;;44.85;26.80;;;;;;;1.29;73.65;97253.63;10219409;29;20063;-79
2021/01/02 20:43:30;;;;;;;40.95;26.38;;;;;;;1.21;73.56;97245.31;10226308;23;20071;-78
2021/01/02 20:48:51;;;;;;;45.08;27.75;;;;;;;1.22;73.96;97255.03;10179053;29;20495;-77
2021/01/02 20:54:12;;;;;;;43.00;27.88;;;;;;;1.25;73.96;97239.47;10184727;29;20095;-78
2021/01/02 20:59:32;;;;;;;46.47;28.15;;;;;;;1.27;74.22;97240.41;10187857;29;20522;-80
2021/01/02 21:04:52;;;;;;;51.17;28.63;;;;;;;1.29;74.42;97240.59;10151487;29;20083;-78
2021/01/02 21:10:12;;;;;;;51.20;30.13;;;;;;;1.29;74.54;97237.84;10178512;29;20060;-78
2021/01/02 21:15:35;;;;;;;52.08;28.88;;;;;;;1.30;74.53;97250.31;10166253;29;20066;-78
2021/01/02 21:20:58;;;;;;;47.67;27.85;;;;;;;1.31;74.53;97229.78;10169221;29;20142;-77
2021/01/02 21:26:27;;;;;;;47.75;27.60;;;;;;;1.36;74.15;97223.41;10170651;29;20064;-78
2021/01/02 21:31:50;;;;;;;50.03;29.60;;;;;;;1.34;74.45;97208.69;10163718;29;20143;-78
2021/01/02 21:37:12;;;;;;;52.63;30.13;;;;;;;1.32;74.63;97217.50;10163411;29;20064;-79
2021/01/02 21:42:32;;;;;;;47.55;28.05;;;;;;;1.34;74.74;97217.69;10184672;29;20118;-80
2021/01/02 21:47:52;;;;;;;55.38;29.88;;;;;;;1.38;74.94;97206.34;10206762;29;20063;-77
2021/01/02 21:53:11;;;;;;;51.53;28.75;;;;;;;1.36;74.93;97223.41;10201906;29;20067;-78
2021/01/02 21:58:31;;;;;;;53.53;28.85;;;;;;;1.37;75.21;97221.38;10201655;29;20064;-76
2021/01/02 22:03:51;;;;;;;50.50;29.83;;;;;;;1.37;74.73;97211.13;10201828;29;20070;-77
2021/01/02 22:09:12;;;;;;;56.45;31.77;;;;;;;1.44;74.91;97215.88;10203730;29;20179;-76
2021/01/02 22:14:32;;;;;;;58.83;31.95;;;;;;;1.40;74.85;97204.50;10202591;29;20070;-76
2021/01/02 22:19:52;;;;;;;59.30;31.58;;;;;;;1.38;75.18;97198.81;10215499;29;20064;-76
2021/01/02 22:25:13;;;;;;;58.63;32.95;;;;;;;1.40;75.06;97190.03;10189490;29;20068;-76
2021/01/02 22:30:33;;;;;;;57.85;32.60;;;;;;;1.41;75.10;97178.47;10202446;29;20063;-76
2021/01/02 22:35:53;;;;;;;55.90;32.67;;;;;;;1.45;75.65;97183.63;10188609;29;20094;-76
2021/01/02 22:41:22;;;;;;;55.25;31.73;;;;;;;1.44;75.17;97188.38;10216362;29;20066;-76
2021/01/02 22:46:41;;;;;;;54.95;31.80;;;;;;;1.49;75.40;97180.50;10216038;29;20070;-77
2021/01/02 22:52:02;;;;;;;58.55;33.75;;;;;;;1.48;75.47;97168.06;10201748;29;20063;-76
2021/01/02 22:57:22;;;;;;;59.05;34.53;;;;;;;1.50;76.40;97170.97;10215813;29;20138;-76
2021/01/02 23:02:42;;;;;;;58.17;32.55;;;;;;;1.47;76.60;97159.06;10206827;29;20597;-76
2021/01/02 23:08:02;;;;;;;51.45;31.70;;;;;;;1.44;75.80;97151.88;10209762;29;20181;-76
2021/01/02 23:13:22;;;;;;;47.45;30.48;;;;;;;1.41;76.00;97142.72;10224479;29;20122;-76
2021/01/02 23:18:42;;;;;;;45.75;28.38;;;;;;;1.39;76.69;97139.78;10208736;29;20063;-76
2021/01/02 23:24:07;;;;;;;52.25;30.77;;;;;;;1.35;76.76;97124.91;10235511;29;20079;-76
2021/01/02 23:29:27;;;;;;;52.65;31.40;;;;;;;1.36;76.85;97127.16;10208716;29;20117;-76
2021/01/02 23:34:48;;;;;;;47.05;29.90;;;;;;;1.36;76.96;97121.66;10196281;29;20490;-76
2021/01/02 23:40:09;;;;;;;50.63;31.02;;;;;;;1.33;77.17;97122.00;10222232;29;20514;-76
2021/01/02 23:45:29;;;;;;;49.47;32.38;;;;;;;1.33;77.44;97111.72;10207750;29;20055;-76
2021/01/02 23:50:48;;;;;;;48.67;31.52;;;;;;;1.19;77.60;97099.44;10195464;29;20060;-76
2021/01/02 23:56:09;;;;;;;46.65;29.20;;;;;;;1.17;77.56;97085.50;10208163;29;20063;-76
